Time;durP1;ratioP1;P1;durP2;ratioP2;P2;SDS_P1;SDS_P2;PMS_P1;PMS_P2;Temp;Humidity;BMP_temperature;BMP_pressure;BME280_temperature;BME280_humidity;BME280_pressure;Samples;Min_cycle;Max_cycle;Signal;HPM_P1;HPM_P2
2022/01/07 00:00:52;;;;;;;11.18;3.30;;;;;;;-2.76;99.37;98814.13;4090256;28;20598;-72
2022/01/07 00:02:55;;;;;;;10.13;4.07;;;;;;;-2.58;100.00;98807.22;4093109;28;20043;-72
2022/01/07 00:04:55;;;;;;;10.93;4.35;;;;;;;-2.50;99.62;98798.47;4090579;28;20046;-72
2022/01/07 00:06:55;;;;;;;5.57;3.47;;;;;;;-2.41;99.59;98804.88;4091231;28;20051;-72
2022/01/07 00:08:56;;;;;;;8.85;3.83;;;;;;;-2.16;98.72;98805.75;4090851;28;20291;-72
2022/01/07 00:10:57;;;;;;;9.13;3.67;;;;;;;-2.17;97.08;98804.94;4090898;28;20067;-72
2022/01/07 00:12:58;;;;;;;7.30;3.65;;;;;;;-2.09;96.39;98801.59;4092562;28;20056;-72
2022/01/07 00:14:59;;;;;;;6.10;3.10;;;;;;;-2.04;95.14;98806.16;4092997;28;20047;-72
2022/01/07 00:16:59;;;;;;;5.55;3.15;;;;;;;-1.98;94.40;98805.03;4089351;28;20757;-72
2022/01/07 00:18:59;;;;;;;8.13;3.90;;;;;;;-1.99;95.05;98811.53;4092156;28;20090;-72
2022/01/07 00:21:00;;;;;;;8.60;3.33;;;;;;;-1.91;94.95;98805.47;4091618;28;20074;-72
2022/01/07 00:23:00;;;;;;;8.38;3.50;;;;;;;-1.87;94.10;98794.88;4089686;28;20074;-72
2022/01/07 00:25:02;;;;;;;10.75;4.35;;;;;;;-1.69;93.40;98796.81;4091674;28;20050;-72
2022/01/07 00:27:02;;;;;;;7.72;3.70;;;;;;;-1.63;92.89;98792.94;4089204;28;20046;-72
2022/01/07 00:29:03;;;;;;;6.97;3.80;;;;;;;-1.55;92.50;98789.59;4088326;28;20154;-72
2022/01/07 00:31:03;;;;;;;9.23;3.75;;;;;;;-1.54;92.41;98787.69;4088022;28;20048;-72
2022/01/07 00:33:05;;;;;;;18.20;4.32;;;;;;;-1.51;93.13;98778.94;4088129;28;20450;-72
2022/01/07 00:35:07;;;;;;;10.35;3.95;;;;;;;-1.45;92.67;98780.50;4089936;28;20051;-72
2022/01/07 00:37:07;;;;;;;7.80;3.95;;;;;;;-1.46;93.04;98771.56;4087298;28;20082;-72
2022/01/07 00:39:07;;;;;;;11.88;3.53;;;;;;;-1.48;92.10;98772.94;4090601;28;20075;-72
2022/01/07 00:41:08;;;;;;;8.13;3.88;;;;;;;-1.54;92.85;98766.78;4092395;28;20043;-72
2022/01/07 00:43:08;;;;;;;7.55;3.75;;;;;;;-1.52;92.49;98766.47;4101295;28;20055;-72
2022/01/07 00:45:09;;;;;;;9.45;3.67;;;;;;;-1.48;92.66;98776.47;4095391;28;20047;-72
2022/01/07 00:47:09;;;;;;;10.93;3.97;;;;;;;-1.55;92.14;98772.50;4170152;28;20236;-72
2022/01/07 00:49:11;;;;;;;9.88;3.35;;;;;;;-1.58;92.39;98773.88;4088466;28;20052;-72
2022/01/07 00:51:12;;;;;;;8.55;3.80;;;;;;;-1.47;94.40;98777.28;4088381;28;20043;-72
2022/01/07 00:53:12;;;;;;;8.98;3.53;;;;;;;-1.45;93.50;98773.16;4087623;28;20384;-72
2022/01/07 00:55:12;;;;;;;8.82;4.10;;;;;;;-1.43;92.29;98767.44;4088351;28;20051;-71
2022/01/07 00:57:13;;;;;;;12.10;5.30;;;;;;;-1.43;92.97;98773.66;4087977;28;20058;-71
2022/01/07 00:59:13;;;;;;;10.05;4.20;;;;;;;-1.46;92.78;98770.75;4088381;28;20101;-71
2022/01/07 01:01:13;;;;;;;11.38;4.07;;;;;;;-1.52;92.79;98764.56;4087459;28;20116;-71
2022/01/07 01:03:14;;;;;;;18.17;4.50;;;;;;;-1.51;93.24;98766.19;4088914;28;20193;-71
2022/01/07 01:05:16;;;;;;;9.93;3.50;;;;;;;-1.48;93.84;98759.38;4088209;28;20079;-72
2022/01/07 01:07:16;;;;;;;11.67;3.83;;;;;;;-1.41;93.36;98751.66;4086632;28;20295;-71
2022/01/07 01:09:17;;;;;;;7.53;3.53;;;;;;;-1.44;92.66;98755.78;4089264;28;20547;-71
2022/01/07 01:11:17;;;;;;;9.98;3.47;;;;;;;-1.43;93.31;98743.00;4092048;28;20133;-71
2022/01/07 01:13:17;;;;;;;11.00;4.03;;;;;;;-1.43;93.20;98734.88;4087886;28;20082;-71
2022/01/07 01:15:26;;;;;;;9.18;3.35;;;;;;;-1.45;92.63;98735.16;4086999;28;20203;-71
2022/01/07 01:17:26;;;;;;;8.50;3.40;;;;;;;-1.45;93.91;98737.06;4088585;28;20046;-71
2022/01/07 01:19:27;;;;;;;8.98;3.85;;;;;;;-1.43;94.11;98732.97;4087856;28;20055;-71
2022/01/07 01:21:27;;;;;;;8.93;3.78;;;;;;;-1.45;93.87;98731.66;4099482;28;20431;-71
2022/01/07 01:23:28;;;;;;;9.15;3.45;;;;;;;-1.45;94.27;98743.31;4093164;28;20113;-71
2022/01/07 01:25:29;;;;;;;11.05;4.20;;;;;;;-1.46;94.75;98735.47;4089508;28;20043;-71
2022/01/07 01:27:29;;;;;;;8.73;3.25;;;;;;;-1.49;93.89;98725.19;4086731;28;20057;-71
2022/01/07 01:29:31;;;;;;;10.77;3.17;;;;;;;-1.52;93.96;98732.00;4087694;28;20051;-71
2022/01/07 01:31:35;;;;;;;5.35;3.15;;;;;;;-1.49;94.17;98726.00;4089230;28;20054;-71
2022/01/07 01:33:36;;;;;;;10.32;3.75;;;;;;;-1.48;93.90;98741.19;4087855;28;20051;-71
2022/01/07 01:35:37;;;;;;;6.85;3.90;;;;;;;-1.58;92.78;98727.75;4087565;28;20399;-71
2022/01/07 01:37:37;;;;;;;7.35;3.55;;;;;;;-1.63;93.74;98724.31;4086974;28;20126;-71
2022/01/07 01:39:38;;;;;;;11.10;4.20;;;;;;;-1.63;95.58;98729.75;4087185;28;20720;-71
2022/01/07 01:41:40;;;;;;;5.93;3.17;;;;;;;-1.67;94.62;98729.50;4088179;28;20542;-71
2022/01/07 01:43:40;;;;;;;8.52;3.80;;;;;;;-1.71;95.43;98721.16;4086607;28;20064;-71
2022/01/07 01:45:41;;;;;;;10.15;4.25;;;;;;;-1.75;95.67;98722.81;4088102;28;20056;-72
2022/01/07 01:47:42;;;;;;;10.07;3.40;;;;;;;-1.77;96.04;98707.94;4086820;28;20043;-72
2022/01/07 01:49:42;;;;;;;8.02;3.58;;;;;;;-1.81;96.14;98704.22;4090564;28;20137;-72
2022/01/07 01:51:42;;;;;;;4.65;3.00;;;;;;;-1.82;96.72;98708.81;4088568;28;20039;-72
2022/01/07 01:53:43;;;;;;;6.47;3.63;;;;;;;-1.83;95.46;98709.09;4087458;28;20070;-72
2022/01/07 01:55:44;;;;;;;15.50;4.05;;;;;;;-1.91;95.00;98715.16;4087735;28;20054;-72
2022/01/07 01:57:46;;;;;;;9.85;3.70;;;;;;;-1.98;95.51;98715.53;4096450;28;20050;-72
2022/01/07 01:59:46;;;;;;;7.05;3.60;;;;;;;-2.05;96.13;98706.94;4095422;28;20637;-71
2022/01/07 02:01:47;;;;;;;6.13;3.47;;;;;;;-2.10;96.30;98707.81;4088811;28;20053;-71
2022/01/07 02:03:47;;;;;;;9.25;3.22;;;;;;;-2.12;97.07;98695.66;4094016;28;20403;-72
2022/01/07 02:05:48;;;;;;;6.63;3.75;;;;;;;-2.14;97.49;98698.66;4087536;28;20507;-72
2022/01/07 02:07:48;;;;;;;8.32;3.28;;;;;;;-2.16;97.23;98694.59;4086103;28;20048;-72
2022/01/07 02:09:48;;;;;;;8.60;4.13;;;;;;;-2.19;97.98;98692.47;4088092;28;20403;-72
2022/01/07 02:11:49;;;;;;;11.75;3.40;;;;;;;-2.16;97.79;98686.47;4087582;28;20116;-72
2022/01/07 02:13:55;;;;;;;8.40;3.97;;;;;;;-2.17;98.15;98687.56;4087685;28;20330;-72
2022/01/07 02:15:55;;;;;;;6.82;3.30;;;;;;;-2.22;98.06;98693.88;4091900;28;20082;-72
2022/01/07 02:17:57;;;;;;;7.88;3.92;;;;;;;-2.21;98.81;98684.63;4086674;28;20101;-72
2022/01/07 02:19:58;;;;;;;9.02;3.85;;;;;;;-2.21;99.23;98684.63;4087202;28;20058;-72
2022/01/07 02:21:58;;;;;;;7.35;3.53;;;;;;;-2.23;99.39;98675.16;4087418;28;20811;-72
2022/01/07 02:23:58;;;;;;;10.15;3.85;;;;;;;-2.28;98.61;98671.44;4089631;28;20057;-72
2022/01/07 02:25:59;;;;;;;8.95;3.70;;;;;;;-2.29;98.96;98669.81;4089043;28;20071;-72
2022/01/07 02:28:00;;;;;;;5.95;3.67;;;;;;;-2.27;98.57;98669.53;4087422;28;20048;-72
2022/01/07 02:30:00;;;;;;;8.40;3.70;;;;;;;-2.34;99.12;98658.22;4087361;28;20055;-72
2022/01/07 02:32:00;;;;;;;6.90;3.75;;;;;;;-2.38;99.20;98662.63;4087030;28;20049;-72
2022/01/07 02:34:01;;;;;;;12.65;3.95;;;;;;;-2.36;99.63;98663.13;4093692;28;20795;-72
2022/01/07 02:36:09;;;;;;;7.47;3.67;;;;;;;-2.43;99.31;98666.19;4087580;28;20046;-72
2022/01/07 02:38:09;;;;;;;9.32;3.50;;;;;;;-2.42;99.61;98654.25;4086225;28;20412;-71
2022/01/07 02:40:11;;;;;;;6.15;3.20;;;;;;;-2.43;99.20;98668.88;4086785;28;20356;-72
2022/01/07 02:42:11;;;;;;;6.32;3.28;;;;;;;-2.46;98.60;98664.06;4087614;28;20077;-72
2022/01/07 02:44:12;;;;;;;10.65;3.63;;;;;;;-2.48;98.84;98660.84;4086494;28;20031;-72
2022/01/07 02:46:12;;;;;;;12.15;3.55;;;;;;;-2.46;99.19;98658.63;4087657;28;20032;-72
2022/01/07 02:48:13;;;;;;;7.95;3.72;;;;;;;-2.45;99.35;98659.44;4085241;28;20118;-72
2022/01/07 02:50:13;;;;;;;10.95;3.58;;;;;;;-2.47;99.74;98654.31;4086488;28;20284;-71
2022/01/07 02:52:13;;;;;;;8.50;3.38;;;;;;;-2.44;99.88;98647.50;4088298;28;20371;-72
2022/01/07 02:54:14;;;;;;;9.60;3.55;;;;;;;-2.40;99.88;98643.94;4087230;28;20035;-72
2022/01/07 02:56:15;;;;;;;7.05;3.20;;;;;;;-2.36;100.00;98644.97;4089757;28;20038;-72
2022/01/07 02:58:17;;;;;;;5.90;3.00;;;;;;;-2.39;99.78;98640.13;4089559;28;20063;-72
2022/01/07 03:00:18;;;;;;;10.68;3.72;;;;;;;-2.43;99.45;98632.84;4090133;28;20043;-72
2022/01/07 03:02:19;;;;;;;10.13;3.70;;;;;;;-2.41;99.75;98638.78;4089177;28;20728;-72
2022/01/07 03:04:19;;;;;;;8.10;3.47;;;;;;;-2.39;99.67;98637.44;4092912;28;20031;-72
2022/01/07 03:06:21;;;;;;;8.63;3.40;;;;;;;-2.42;99.21;98629.03;4094873;28;20026;-72
2022/01/07 03:08:21;;;;;;;5.32;2.45;;;;;;;-2.38;99.39;98625.47;4090712;28;20067;-72
2022/01/07 03:10:29;;;;;;;6.32;2.75;;;;;;;-2.38;100.00;98627.38;4092799;28;20483;-72
2022/01/07 03:12:30;;;;;;;8.63;3.28;;;;;;;-2.42;99.05;98627.16;4093563;28;20647;-72
2022/01/07 03:14:30;;;;;;;8.55;3.30;;;;;;;-2.43;99.17;98622.03;4089241;28;20049;-72
2022/01/07 03:16:31;;;;;;;8.90;3.50;;;;;;;-2.45;99.68;98619.59;4089650;28;20154;-72
2022/01/07 03:18:31;;;;;;;8.98;3.47;;;;;;;-2.47;99.44;98616.38;4089181;28;20047;-72
2022/01/07 03:20:38;;;;;;;8.07;3.58;;;;;;;-2.49;99.74;98605.00;4089445;28;20078;-72
2022/01/07 03:22:38;;;;;;;6.28;4.07;;;;;;;-2.49;99.93;98610.44;4089768;28;20109;-72
2022/01/07 03:24:40;;;;;;;10.55;4.32;;;;;;;-2.59;99.58;98597.81;4089820;28;20479;-72
2022/01/07 03:26:40;;;;;;;8.18;3.67;;;;;;;-2.59;100.00;98605.94;4091355;28;20539;-72
2022/01/07 03:28:41;;;;;;;6.60;3.28;;;;;;;-2.61;100.00;98591.09;4088704;28;20083;-72
2022/01/07 03:30:41;;;;;;;9.43;3.28;;;;;;;-2.59;100.00;98580.75;4088661;28;20514;-72
2022/01/07 03:32:42;;;;;;;6.40;3.53;;;;;;;-2.58;100.00;98582.38;4089821;28;20039;-72
2022/01/07 03:34:42;;;;;;;8.93;3.70;;;;;;;-2.53;100.00;98587.72;4088894;28;20043;-72
2022/01/07 03:36:42;;;;;;;10.73;3.88;;;;;;;-2.57;99.51;98582.06;4090422;28;20052;-72
2022/01/07 03:38:44;;;;;;;6.93;3.17;;;;;;;-2.63;99.31;98575.13;4089565;28;20458;-72
2022/01/07 03:40:44;;;;;;;7.32;3.80;;;;;;;-2.61;100.00;98591.09;4089046;28;20050;-72
2022/01/07 03:42:45;;;;;;;7.18;3.25;;;;;;;-2.63;100.00;98585.16;4091316;28;20479;-72
2022/01/07 03:44:45;;;;;;;8.40;3.72;;;;;;;-2.73;99.68;98571.72;4094522;28;20495;-72
2022/01/07 03:46:46;;;;;;;7.15;3.33;;;;;;;-2.72;100.00;98578.75;4088590;28;20096;-72
2022/01/07 03:48:46;;;;;;;10.13;3.60;;;;;;;-2.70;100.00;98566.53;4089021;28;20043;-72
2022/01/07 03:50:46;;;;;;;6.25;2.80;;;;;;;-2.68;100.00;98569.75;4088496;28;20547;-72
2022/01/07 03:52:48;;;;;;;6.45;3.28;;;;;;;-2.66;100.00;98566.75;4155750;28;20405;-72
2022/01/07 03:54:50;;;;;;;10.90;3.40;;;;;;;-2.67;100.00;98565.94;4092379;28;20076;-72
2022/01/07 03:56:51;;;;;;;10.85;3.80;;;;;;;-2.64;100.00;98568.09;4089438;28;20397;-72
2022/01/07 03:58:51;;;;;;;9.88;2.83;;;;;;;-2.62;100.00;98567.81;4089633;28;20043;-72
2022/01/07 04:00:51;;;;;;;8.10;3.65;;;;;;;-2.63;100.00;98560.78;4088503;28;20130;-72
2022/01/07 04:02:52;;;;;;;5.10;3.20;;;;;;;-2.66;98.64;98561.34;4088457;28;20105;-72
2022/01/07 04:04:53;;;;;;;7.47;3.63;;;;;;;-2.68;99.10;98547.28;4092325;28;20046;-72
2022/01/07 04:06:53;;;;;;;7.70;3.17;;;;;;;-2.55;98.37;98547.38;4088500;28;20046;-72
2022/01/07 04:08:54;;;;;;;13.35;2.85;;;;;;;-2.46;99.08;98552.16;4088110;28;20250;-71
2022/01/07 04:10:54;;;;;;;12.65;3.03;;;;;;;-2.32;99.59;98556.59;4094471;28;20039;-71
2022/01/07 04:12:55;;;;;;;8.07;3.08;;;;;;;-2.19;99.52;98557.75;4089514;28;20380;-72
2022/01/07 04:15:08;;;;;;;11.60;3.55;;;;;;;-2.13;97.84;98548.44;4087797;28;20062;-72
2022/01/07 04:17:08;;;;;;;7.15;3.15;;;;;;;-2.03;97.97;98553.72;4088636;28;20051;-72
2022/01/07 04:19:08;;;;;;;6.57;3.03;;;;;;;-2.00;96.31;98553.13;4089237;28;20490;-72
2022/01/07 04:21:09;;;;;;;4.75;2.60;;;;;;;-1.88;96.01;98560.81;4088494;28;20323;-72
2022/01/07 04:23:09;;;;;;;5.25;2.63;;;;;;;-1.77;95.42;98547.91;4088694;28;20050;-72
2022/01/07 04:25:16;;;;;;;7.05;2.85;;;;;;;-1.74;94.79;98550.84;4089097;28;20047;-72
2022/01/07 04:27:17;;;;;;;9.40;3.33;;;;;;;-1.72;94.71;98550.53;4090518;28;20047;-72
2022/01/07 04:29:17;;;;;;;4.95;3.00;;;;;;;-1.68;95.93;98553.47;4088827;28;20070;-72
2022/01/07 04:31:18;;;;;;;5.97;3.03;;;;;;;-1.68;95.60;98553.47;4092638;28;20166;-72
2022/01/07 04:33:26;;;;;;;10.70;3.70;;;;;;;-1.67;95.95;98542.31;4089770;28;20476;-72
2022/01/07 04:35:26;;;;;;;6.40;2.95;;;;;;;-1.59;96.30;98538.09;4088297;28;20066;-71
2022/01/07 04:37:26;;;;;;;6.63;3.30;;;;;;;-1.51;95.57;98535.53;4088133;28;20507;-72
2022/01/07 04:39:27;;;;;;;6.65;2.97;;;;;;;-1.46;94.80;98529.22;4087862;28;20047;-72
2022/01/07 04:41:27;;;;;;;8.00;3.28;;;;;;;-1.49;94.15;98518.94;4088023;28;20128;-71
2022/01/07 04:43:28;;;;;;;8.30;3.65;;;;;;;-1.47;94.36;98524.91;4088802;28;20054;-71
2022/01/07 04:45:28;;;;;;;6.28;3.58;;;;;;;-1.52;93.51;98531.19;4087974;28;20043;-71
2022/01/07 04:47:29;;;;;;;7.53;4.00;;;;;;;-1.56;94.12;98534.81;4088614;28;20047;-71
2022/01/07 04:49:29;;;;;;;7.55;3.47;;;;;;;-1.61;94.56;98522.13;4090000;28;20113;-71
2022/01/07 04:51:29;;;;;;;8.52;4.38;;;;;;;-1.65;95.43;98510.28;4093096;28;20122;-72
2022/01/07 04:53:30;;;;;;;8.32;4.10;;;;;;;-1.65;95.57;98512.19;4094209;28;20046;-72
2022/01/07 04:55:37;;;;;;;7.13;3.63;;;;;;;-1.67;96.07;98506.22;4089109;28;20300;-71
2022/01/07 04:57:37;;;;;;;9.75;4.38;;;;;;;-1.66;96.33;98500.50;4087735;28;20078;-71
2022/01/07 04:59:38;;;;;;;8.55;4.43;;;;;;;-1.62;96.40;98506.16;4088514;28;20055;-71
2022/01/07 05:01:38;;;;;;;10.65;4.00;;;;;;;-1.64;96.24;98501.03;4088307;28;20106;-71
2022/01/07 05:03:39;;;;;;;6.93;3.80;;;;;;;-1.68;95.86;98505.44;4087829;28;20554;-71
2022/01/07 05:05:39;;;;;;;7.00;3.97;;;;;;;-1.67;96.36;98509.75;4091052;28;20043;-71
2022/01/07 05:07:40;;;;;;;5.75;3.47;;;;;;;-1.71;96.47;98503.31;4087741;28;20222;-71
2022/01/07 05:09:40;;;;;;;7.05;3.78;;;;;;;-1.67;97.07;98509.75;4087135;28;20047;-72
2022/01/07 05:11:40;;;;;;;8.32;4.40;;;;;;;-1.68;96.84;98515.47;4088878;28;20143;-72
2022/01/07 05:13:41;;;;;;;6.55;3.53;;;;;;;-1.68;96.22;98507.34;4088271;28;20051;-72
2022/01/07 05:15:41;;;;;;;9.95;4.38;;;;;;;-1.68;96.73;98505.44;4089111;28;20044;-72
2022/01/07 05:17:42;;;;;;;8.50;3.50;;;;;;;-1.58;96.25;98501.72;4086329;28;20158;-72
2022/01/07 05:19:42;;;;;;;6.97;3.80;;;;;;;-1.58;95.94;98502.53;4094116;28;20108;-72
2022/01/07 05:21:43;;;;;;;6.88;3.88;;;;;;;-1.58;95.82;98509.88;4088074;28;20043;-72
2022/01/07 05:23:43;;;;;;;7.55;3.67;;;;;;;-1.53;94.72;98501.66;4088322;28;20120;-72
2022/01/07 05:25:43;;;;;;;7.00;3.95;;;;;;;-1.56;94.70;98494.94;4088412;28;20553;-72
2022/01/07 05:27:44;;;;;;;11.13;3.92;;;;;;;-1.44;95.71;98499.88;4087075;28;20542;-72
2022/01/07 05:29:45;;;;;;;7.30;3.80;;;;;;;-1.43;94.36;98504.19;4087911;28;20422;-72
2022/01/07 05:31:45;;;;;;;8.82;3.47;;;;;;;-1.36;93.93;98506.50;4108642;28;20398;-72
2022/01/07 05:33:45;;;;;;;7.70;3.70;;;;;;;-1.32;93.80;98496.69;4108855;28;20039;-72
2022/01/07 05:35:46;;;;;;;8.27;3.72;;;;;;;-1.30;92.47;98483.59;4090697;28;20384;-72
2022/01/07 05:37:46;;;;;;;11.63;3.95;;;;;;;-1.23;92.41;98486.72;4090088;28;20592;-72
2022/01/07 05:39:46;;;;;;;10.05;3.42;;;;;;;-1.21;91.90;98495.38;4089205;28;20055;-71
2022/01/07 05:41:47;;;;;;;5.85;3.38;;;;;;;-1.20;93.32;98500.50;4091613;28;20037;-71
2022/01/07 05:43:47;;;;;;;8.45;3.90;;;;;;;-1.22;92.05;98485.63;4092242;28;20104;-71
2022/01/07 05:45:48;;;;;;;6.22;3.65;;;;;;;-1.19;93.04;98493.16;4089348;28;20049;-71
2022/01/07 05:47:48;;;;;;;7.53;3.80;;;;;;;-1.24;92.42;98479.66;4099551;28;20050;-72
2022/01/07 05:49:48;;;;;;;12.40;4.07;;;;;;;-1.17;90.89;98485.50;4092655;28;20299;-72
2022/01/07 05:51:49;;;;;;;13.27;4.20;;;;;;;-1.17;90.12;98489.03;4089555;28;20063;-72
2022/01/07 05:53:49;;;;;;;6.63;3.67;;;;;;;-1.17;90.17;98488.22;4096625;28;20565;-72
2022/01/07 05:55:49;;;;;;;4.97;3.90;;;;;;;-1.14;91.27;98488.44;4088583;28;20363;-72
2022/01/07 05:57:50;;;;;;;8.70;3.60;;;;;;;-1.15;91.95;98467.84;4088343;28;20074;-72
2022/01/07 05:59:50;;;;;;;6.10;3.67;;;;;;;-1.05;89.45;98479.59;4092533;28;20053;-72
2022/01/07 06:01:51;;;;;;;7.53;3.92;;;;;;;-1.04;90.39;98473.06;4088566;28;20039;-72
2022/01/07 06:03:51;;;;;;;7.63;4.20;;;;;;;-1.09;89.38;98478.56;4089846;28;20125;-72
2022/01/07 06:05:52;;;;;;;5.00;3.80;;;;;;;-1.14;89.66;98471.34;4091054;28;20034;-72
2022/01/07 06:07:52;;;;;;;7.00;3.05;;;;;;;-1.13;88.77;98470.25;4088710;28;20049;-72
2022/01/07 06:09:52;;;;;;;6.18;3.58;;;;;;;-1.07;90.33;98470.97;4093302;28;20046;-72
2022/01/07 06:11:53;;;;;;;6.90;3.25;;;;;;;-1.07;89.46;98460.91;4090030;28;20093;-72
2022/01/07 06:13:53;;;;;;;8.05;3.58;;;;;;;-1.05;88.17;98474.97;4089232;28;20368;-71
2022/01/07 06:15:53;;;;;;;4.75;2.90;;;;;;;-0.99;89.08;98465.63;4089832;28;20130;-72
2022/01/07 06:17:54;;;;;;;10.00;4.13;;;;;;;-1.10;89.02;98466.91;4090640;28;20050;-72
2022/01/07 06:19:54;;;;;;;6.05;3.22;;;;;;;-1.07;90.51;98450.03;4090052;28;20825;-72
2022/01/07 06:21:55;;;;;;;6.35;2.70;;;;;;;-0.98;88.82;98452.84;4090068;28;20093;-72
2022/01/07 06:23:55;;;;;;;5.57;2.85;;;;;;;-1.01;88.38;98448.00;4088113;28;20070;-71
2022/01/07 06:25:56;;;;;;;4.43;3.13;;;;;;;-1.01;90.21;98439.84;4088357;28;20135;-71
2022/01/07 06:27:56;;;;;;;5.32;3.03;;;;;;;-1.01;89.56;98450.72;4092141;28;20554;-72
2022/01/07 06:29:57;;;;;;;6.35;3.20;;;;;;;-1.02;89.41;98449.91;4097395;28;20055;-72
2022/01/07 06:31:57;;;;;;;6.10;2.95;;;;;;;-1.06;88.14;98442.69;4096572;28;20046;-72
2022/01/07 06:33:58;;;;;;;7.88;2.72;;;;;;;-1.07;87.46;98441.88;4095157;28;20050;-72
2022/01/07 06:35:59;;;;;;;5.35;3.08;;;;;;;-1.13;88.52;98433.03;4093315;28;20055;-71
2022/01/07 06:37:59;;;;;;;3.92;2.78;;;;;;;-1.07;90.68;98430.22;4094795;28;20129;-72
2022/01/07 06:40:00;;;;;;;6.43;3.10;;;;;;;-1.15;90.74;98435.25;4092279;28;20094;-71
2022/01/07 06:42:01;;;;;;;4.32;3.10;;;;;;;-1.12;91.69;98436.56;4094106;28;20039;-71
2022/01/07 06:44:02;;;;;;;4.07;2.67;;;;;;;-1.16;90.32;98436.38;4093370;28;20138;-71
2022/01/07 06:46:02;;;;;;;4.82;3.05;;;;;;;-1.16;90.95;98439.06;4092154;28;20184;-71
2022/01/07 06:48:03;;;;;;;3.85;2.63;;;;;;;-1.16;91.29;98441.78;4091981;28;20030;-71
2022/01/07 06:50:05;;;;;;;4.25;2.60;;;;;;;-1.12;90.06;98433.84;4098259;28;20461;-72
2022/01/07 06:52:06;;;;;;;5.32;2.70;;;;;;;-1.07;87.47;98431.03;4092393;28;20037;-71
2022/01/07 06:54:10;;;;;;;6.78;2.85;;;;;;;-1.00;88.45;98436.81;4095818;28;20658;-71
2022/01/07 06:56:11;;;;;;;6.25;3.22;;;;;;;-1.01;89.84;98429.00;4093249;28;20035;-72
2022/01/07 06:58:11;;;;;;;5.07;2.90;;;;;;;-1.03;90.86;98423.88;4089675;28;20088;-72
2022/01/07 07:00:12;;;;;;;4.90;3.33;;;;;;;-1.11;90.29;98413.72;4090517;28;20035;-72
2022/01/07 07:02:12;;;;;;;8.13;3.28;;;;;;;-1.13;89.88;98424.88;4090679;28;20036;-72
2022/01/07 07:04:14;;;;;;;4.68;3.13;;;;;;;-1.14;90.20;98427.91;4106566;28;20035;-72
2022/01/07 07:06:15;;;;;;;6.88;3.33;;;;;;;-1.23;91.24;98416.97;4094778;28;20033;-72
2022/01/07 07:08:15;;;;;;;7.80;3.33;;;;;;;-1.25;91.65;98421.84;4100824;28;20200;-71
2022/01/07 07:10:16;;;;;;;3.50;2.38;;;;;;;-1.31;91.98;98423.09;4108514;28;20074;-71
2022/01/07 07:12:16;;;;;;;8.48;2.95;;;;;;;-1.31;93.44;98417.66;4092871;28;20047;-72
2022/01/07 07:14:16;;;;;;;6.28;3.30;;;;;;;-1.32;92.95;98426.09;4093015;28;20047;-72
2022/01/07 07:16:17;;;;;;;4.40;2.75;;;;;;;-1.31;91.14;98419.56;4088938;28;20042;-72
2022/01/07 07:18:17;;;;;;;4.25;2.78;;;;;;;-1.27;91.82;98415.94;4092363;28;20395;-72
2022/01/07 07:20:18;;;;;;;4.00;2.28;;;;;;;-1.22;89.95;98410.41;4090765;28;20447;-72
2022/01/07 07:22:19;;;;;;;5.93;2.95;;;;;;;-1.15;90.75;98413.53;4088431;28;20373;-71
2022/01/07 07:24:19;;;;;;;3.38;2.58;;;;;;;-1.15;90.57;98415.44;4091366;28;20121;-71
2022/01/07 07:26:19;;;;;;;5.15;2.95;;;;;;;-1.16;90.30;98408.38;4140937;28;20041;-71
2022/01/07 07:28:20;;;;;;;5.32;3.22;;;;;;;-1.10;88.77;98409.88;4088867;28;20465;-71
2022/01/07 07:30:20;;;;;;;6.03;3.05;;;;;;;-1.01;87.87;98412.69;4088978;28;20071;-71
2022/01/07 07:32:26;;;;;;;12.50;3.17;;;;;;;-0.94;86.75;98418.53;4090171;28;20122;-71
2022/01/07 07:36:40;;;;;;;7.47;3.08;;;;;;;-0.91;87.25;98409.75;4090494;28;20211;-71
2022/01/07 07:38:41;;;;;;;7.45;3.53;;;;;;;-0.85;86.70;98408.53;4096467;28;20322;-71
2022/01/07 07:40:42;;;;;;;3.97;2.72;;;;;;;-0.75;87.75;98408.31;4092032;28;20051;-71
2022/01/07 07:42:43;;;;;;;4.50;2.72;;;;;;;-0.72;85.86;98396.84;4089440;28;20058;-71
2022/01/07 07:44:43;;;;;;;8.93;3.22;;;;;;;-0.61;85.48;98403.66;4089130;28;20047;-71
2022/01/07 07:46:44;;;;;;;7.40;3.05;;;;;;;-0.62;85.58;98396.63;4091007;28;20043;-71
2022/01/07 07:48:46;;;;;;;4.82;2.72;;;;;;;-0.55;85.31;98401.63;4094490;28;20035;-71
2022/01/07 07:50:46;;;;;;;8.97;3.23;;;;;;;-0.52;85.63;98390.13;4089736;28;20035;-71
2022/01/07 07:52:46;;;;;;;5.82;2.40;;;;;;;-0.54;86.49;98392.38;4089471;28;20046;-71
2022/01/07 07:54:47;;;;;;;5.10;2.90;;;;;;;-0.50;87.00;98397.97;4089674;28;20049;-71
2022/01/07 07:56:47;;;;;;;8.65;4.00;;;;;;;-0.53;87.81;98393.16;4089578;28;20166;-71
2022/01/07 07:58:48;;;;;;;6.15;3.38;;;;;;;-0.53;88.00;98401.31;4088798;28;20069;-71
2022/01/07 08:00:50;;;;;;;11.77;3.88;;;;;;;-0.50;87.47;98403.41;4090050;28;20472;-71
2022/01/07 08:02:50;;;;;;;9.33;3.80;;;;;;;-0.36;87.78;98406.91;4088635;28;20163;-71
2022/01/07 08:04:51;;;;;;;8.57;3.40;;;;;;;-0.36;87.27;98407.69;4089145;28;20668;-71
2022/01/07 08:06:51;;;;;;;9.73;3.88;;;;;;;-0.36;87.02;98401.47;4089342;28;20325;-71
2022/01/07 08:08:52;;;;;;;5.38;3.15;;;;;;;-0.36;86.99;98391.38;4088804;28;20134;-71
2022/01/07 08:10:56;;;;;;;5.25;3.85;;;;;;;-0.38;87.19;98393.63;4090866;28;20046;-71
2022/01/07 08:15:58;;;;;;;7.75;3.95;;;;;;;-0.38;87.73;98382.75;4089904;28;20051;-71
2022/01/07 08:17:36;;;;;;;9.20;4.53;;;;;;;-0.32;87.58;98383.44;4088709;28;20185;-71
2022/01/07 08:19:36;;;;;;;7.80;3.95;;;;;;;-0.27;87.36;98372.41;4092292;28;20055;-71
2022/01/07 08:21:37;;;;;;;9.15;3.83;;;;;;;-0.25;87.36;98372.91;4089786;28;20047;-71
2022/01/07 08:23:40;;;;;;;6.22;3.78;;;;;;;-0.23;87.51;98378.84;4088948;28;20553;-71
2022/01/07 08:25:40;;;;;;;;;;;;;;;-0.23;87.88;98380.78;4090299;28;20047;-71
2022/01/07 08:27:41;;;;;;;7.60;3.95;;;;;;;-0.28;87.32;98368.91;4088040;28;19972;-71
2022/01/07 08:29:42;;;;;;;6.65;3.85;;;;;;;-0.23;86.55;98367.97;4089289;28;20101;-71
2022/01/07 08:36:02;;;;;;;8.15;3.58;;;;;;;-0.26;87.33;98356.91;4094047;28;20053;-71
2022/01/07 08:38:03;;;;;;;6.88;3.60;;;;;;;-0.22;86.02;98347.84;4090907;28;20036;-71
2022/01/07 08:40:04;;;;;;;7.30;3.92;;;;;;;-0.23;86.67;98354.38;4089531;28;20034;-71
2022/01/07 08:42:05;;;;;;;9.85;4.05;;;;;;;-0.26;85.57;98354.19;4089844;28;20024;-71
2022/01/07 08:44:06;;;;;;;6.35;3.83;;;;;;;-0.17;85.86;98358.56;4089125;28;20384;-71
2022/01/07 08:46:07;;;;;;;7.40;4.47;;;;;;;-0.19;86.25;98347.19;4088107;28;20456;-71
2022/01/07 08:48:07;;;;;;;7.78;3.72;;;;;;;-0.21;87.02;98349.44;4093798;28;20027;-71
2022/01/07 08:50:08;;;;;;;6.22;3.95;;;;;;;-0.23;86.25;98342.72;4089206;28;20439;-71
2022/01/07 08:52:08;;;;;;;5.85;3.90;;;;;;;-0.15;84.72;98344.69;4088363;28;20039;-71
2022/01/07 08:54:09;;;;;;;8.30;3.72;;;;;;;-0.14;85.14;98343.56;4088821;28;20127;-71
2022/01/07 08:56:09;;;;;;;7.13;3.75;;;;;;;-0.11;85.64;98351.09;4089311;28;20039;-71
2022/01/07 08:58:10;;;;;;;6.45;4.10;;;;;;;-0.01;85.08;98343.47;4089344;28;20054;-71
2022/01/07 09:00:12;;;;;;;8.45;4.22;;;;;;;-0.05;85.32;98342.50;4087881;28;20118;-71
2022/01/07 09:02:12;;;;;;;7.82;3.80;;;;;;;-0.04;85.85;98335.94;4089071;28;20046;-71
2022/01/07 09:04:12;;;;;;;8.50;4.00;;;;;;;-0.06;85.18;98345.53;4089016;28;20035;-71
2022/01/07 09:06:13;;;;;;;6.40;4.00;;;;;;;-0.01;85.55;98348.09;4087613;28;20081;-71
2022/01/07 09:08:13;;;;;;;10.75;4.10;;;;;;;0.01;85.37;98335.00;4088233;28;20463;-71
2022/01/07 09:10:14;;;;;;;7.43;4.07;;;;;;;-0.03;85.76;98337.53;4094561;28;20042;-71
2022/01/07 09:12:14;;;;;;;5.72;3.70;;;;;;;-0.01;85.39;98334.50;4088281;28;20071;-71
2022/01/07 09:14:15;;;;;;;7.78;3.92;;;;;;;-0.01;85.82;98340.75;4092007;28;20035;-71
2022/01/07 09:16:16;;;;;;;8.55;3.92;;;;;;;-0.01;86.33;98346.19;4088866;28;20058;-71
2022/01/07 09:18:18;;;;;;;10.43;4.93;;;;;;;0.02;85.26;98331.19;4088001;28;20034;-71
2022/01/07 09:20:21;;;;;;;5.68;3.38;;;;;;;0.10;84.61;98345.94;4088175;28;20435;-71
2022/01/07 09:22:21;;;;;;;6.00;3.35;;;;;;;0.09;85.45;98344.34;4089018;28;20566;-71
2022/01/07 09:24:22;;;;;;;7.68;4.25;;;;;;;0.13;85.60;98340.66;4088706;28;20457;-71
2022/01/07 09:26:22;;;;;;;7.57;4.40;;;;;;;0.14;86.03;98347.69;4089321;28;20047;-71
2022/01/07 09:28:23;;;;;;;6.53;3.83;;;;;;;0.11;85.42;98342.09;4087558;28;20043;-71
2022/01/07 09:30:24;;;;;;;7.63;3.63;;;;;;;0.10;85.71;98335.84;4088314;28;20042;-71
2022/01/07 09:32:24;;;;;;;11.32;3.50;;;;;;;0.11;86.00;98340.19;4091461;28;20105;-71
2022/01/07 09:34:25;;;;;;;6.10;3.75;;;;;;;0.14;86.09;98344.19;4087836;28;20559;-71
2022/01/07 09:36:25;;;;;;;7.65;3.72;;;;;;;0.08;86.94;98343.50;4093637;28;20054;-71